Time;durP1;ratioP1;P1;durP2;ratioP2;P2;SDS_P1;SDS_P2;PMS_P1;PMS_P2;Temp;Humidity;BMP_temperature;BMP_pressure;BME280_temperature;BME280_humidity;BME280_pressure;Samples;Min_cycle;Max_cycle;Signal;HPM_P1;HPM_P2
2021/05/03 00:01:47;;;;;;;;;;;;;;;19.07;64.20;101526.28;5150851;27;1183;-68
2021/05/03 00:04:32;;;;;;;;;;;;;;;19.07;64.06;101528.06;5134402;27;1336;-67
2021/05/03 00:07:17;;;;;;;;;;;;;;;19.07;64.08;101528.94;5150255;27;675;-68
2021/05/03 00:10:02;;;;;;;;;;;;;;;19.06;63.87;101534.25;5150061;27;1959;-67
2021/05/03 00:12:47;;;;;;;;;;;;;;;19.04;64.01;101537.00;5150792;27;630;-67
2021/05/03 00:15:32;;;;;;;;;;;;;;;19.05;63.90;101527.28;5143791;27;1556;-67
2021/05/03 00:18:17;;;;;;;;;;;;;;;19.05;64.05;101530.78;5138894;27;715;-66
2021/05/03 00:21:03;;;;;;;;;;;;;;;19.04;63.92;101531.72;5145354;27;1275;-65
2021/05/03 00:23:48;;;;;;;;;;;;;;;19.03;63.87;101527.34;5153372;27;1061;-66
2021/05/03 00:26:34;;;;;;;;;;;;;;;19.02;63.99;101530.94;5154037;27;1295;-67
2021/05/03 00:29:21;;;;;;;;;;;;;;;19.03;63.86;101523.84;5138243;27;1890;-66
2021/05/03 00:32:07;;;;;;;;;;;;;;;19.02;64.03;101515.09;5154603;27;705;-67
2021/05/03 00:34:58;;;;;;;;;;;;;;;19.03;63.93;101516.78;5135819;27;1259;-68
2021/05/03 00:37:42;;;;;;;;;;;;;;;19.02;63.90;101516.88;5150388;27;729;-68
2021/05/03 00:40:27;;;;;;;;;;;;;;;19.02;63.99;101515.09;5150923;27;1353;-68
2021/05/03 00:43:18;;;;;;;;;;;;;;;18.95;63.96;101511.00;5150684;27;615;-67
2021/05/03 00:46:02;;;;;;;;;;;;;;;19.00;64.20;101513.41;5150612;27;1333;-68
2021/05/03 00:48:48;;;;;;;;;;;;;;;18.98;63.88;101513.50;5150601;27;1905;-67
2021/05/03 00:51:33;;;;;;;;;;;;;;;19.00;63.92;101501.06;5134980;27;1317;-67
2021/05/03 00:54:17;;;;;;;;;;;;;;;18.99;63.79;101511.72;5150482;27;922;-67
2021/05/03 00:57:02;;;;;;;;;;;;;;;19.00;63.93;101516.91;5151066;27;667;-68
2021/05/03 00:59:47;;;;;;;;;;;;;;;18.99;63.87;101514.38;5152365;27;1330;-68
2021/05/03 01:02:32;;;;;;;;;;;;;;;18.99;63.86;101512.59;5154635;27;631;-68
2021/05/03 01:05:16;;;;;;;;;;;;;;;18.99;63.84;101519.66;5154425;27;1285;-67
2021/05/03 01:08:02;;;;;;;;;;;;;;;18.97;63.70;101511.78;5154085;27;1983;-67
2021/05/03 01:10:47;;;;;;;;;;;;;;;18.99;63.68;101514.38;5154304;27;1273;-68
2021/05/03 01:13:32;;;;;;;;;;;;;;;18.97;63.73;101511.78;5153816;27;674;-67
2021/05/03 01:16:16;;;;;;;;;;;;;;;18.95;64.00;101513.66;5137841;27;1278;-68
2021/05/03 01:19:02;;;;;;;;;;;;;;;18.94;63.80;101514.56;5153724;27;1339;-67
2021/05/03 01:21:48;;;;;;;;;;;;;;;18.95;63.64;101523.34;5149783;27;1509;-69
2021/05/03 01:24:33;;;;;;;;;;;;;;;18.93;63.77;101523.44;5152768;27;1259;-67
2021/05/03 01:27:17;;;;;;;;;;;;;;;18.93;63.74;101520.78;5123767;27;679;-68
2021/05/03 01:30:05;;;;;;;;;;;;;;;18.93;63.77;101530.50;5117139;27;1930;-67
2021/05/03 01:32:50;;;;;;;;;;;;;;;18.93;63.70;101526.06;5117053;27;679;-67
2021/05/03 01:35:35;;;;;;;;;;;;;;;18.93;63.73;101527.84;5133190;27;1239;-67
2021/05/03 01:38:20;;;;;;;;;;;;;;;18.91;63.72;101519.13;5132995;27;698;-67
2021/05/03 01:41:05;;;;;;;;;;;;;;;18.94;63.69;101521.63;5117640;27;1280;-67
2021/05/03 01:43:50;;;;;;;;;;;;;;;18.93;63.73;101517.28;5132522;27;1023;-66
2021/05/03 01:46:36;;;;;;;;;;;;;;;18.92;63.68;101516.44;5132385;27;1476;-66
2021/05/03 01:49:21;;;;;;;;;;;;;;;18.92;63.66;101524.34;5132466;27;1897;-66
2021/05/03 01:52:06;;;;;;;;;;;;;;;18.93;63.95;101520.78;5132613;27;709;-68
2021/05/03 01:54:51;;;;;;;;;;;;;;;18.91;63.66;101525.25;5132445;27;1338;-67
2021/05/03 01:57:36;;;;;;;;;;;;;;;18.91;63.80;101512.06;5132614;27;625;-68
2021/05/03 02:00:21;;;;;;;;;;;;;;;18.90;63.72;101510.38;5150298;27;1247;-67
2021/05/03 02:03:06;;;;;;;;;;;;;;;18.90;63.94;101510.38;5152963;27;678;-68
2021/05/03 02:05:51;;;;;;;;;;;;;;;18.90;63.77;101509.50;5137129;27;1286;-67
2021/05/03 02:08:36;;;;;;;;;;;;;;;18.90;63.85;101505.09;5153193;27;1902;-67
2021/05/03 02:11:20;;;;;;;;;;;;;;;18.89;63.60;101513.06;5151989;27;1379;-66
2021/05/03 02:14:05;;;;;;;;;;;;;;;18.88;63.73;101514.84;5152881;27;1035;-67
2021/05/03 02:16:50;;;;;;;;;;;;;;;18.89;63.61;101515.72;5152627;27;674;-67
2021/05/03 02:19:35;;;;;;;;;;;;;;;18.89;63.69;101523.63;5152317;27;1251;-66
2021/05/03 02:22:20;;;;;;;;;;;;;;;18.88;63.65;101520.13;5152530;27;643;-67
2021/05/03 02:25:05;;;;;;;;;;;;;;;18.90;63.39;101520.06;5153384;27;1351;-67
2021/05/03 02:27:49;;;;;;;;;;;;;;;18.87;63.61;101523.72;5136675;27;714;-68
2021/05/03 02:30:34;;;;;;;;;;;;;;;18.87;63.58;101518.44;5152630;27;1234;-68
2021/05/03 02:33:19;;;;;;;;;;;;;;;18.87;63.54;101520.22;5153078;27;615;-68
2021/05/03 02:36:04;;;;;;;;;;;;;;;18.87;63.48;101515.78;5152487;27;1326;-67
2021/05/03 02:38:48;;;;;;;;;;;;;;;18.85;63.48;101517.63;5152262;27;1055;-67
2021/05/03 02:41:33;;;;;;;;;;;;;;;18.85;63.56;101507.06;5152295;27;1331;-67
2021/05/03 02:44:18;;;;;;;;;;;;;;;18.85;63.48;101509.69;5151717;27;969;-67
2021/05/03 02:47:03;;;;;;;;;;;;;;;18.85;63.44;101509.69;5152316;27;1695;-68
2021/05/03 02:49:48;;;;;;;;;;;;;;;18.85;63.42;101507.06;5152489;27;1897;-67
2021/05/03 02:52:32;;;;;;;;;;;;;;;18.86;63.40;101514.06;5152365;27;670;-68
2021/05/03 02:55:18;;;;;;;;;;;;;;;18.85;63.41;101514.97;5152242;27;1290;-67
2021/05/03 02:58:03;;;;;;;;;;;;;;;18.84;63.34;101510.66;5151849;27;615;-67
2021/05/03 03:00:47;;;;;;;;;;;;;;;18.82;63.44;101511.63;5152178;27;1263;-67
2021/05/03 03:03:32;;;;;;;;;;;;;;;18.83;63.42;101508.94;5152350;27;650;-67
2021/05/03 03:06:17;;;;;;;;;;;;;;;18.83;63.31;101502.78;5151465;27;1264;-66
2021/05/03 03:09:02;;;;;;;;;;;;;;;18.83;63.16;101514.22;5151778;27;1957;-66
2021/05/03 03:11:48;;;;;;;;;;;;;;;18.83;63.16;101503.66;5151453;27;1299;-66
2021/05/03 03:14:32;;;;;;;;;;;;;;;18.84;63.22;101502.72;5135908;27;1603;-66
2021/05/03 03:17:17;;;;;;;;;;;;;;;18.83;63.25;101502.78;5151348;27;658;-65
2021/05/03 03:20:03;;;;;;;;;;;;;;;18.81;63.13;101500.22;5135793;27;1236;-67
2021/05/03 03:22:48;;;;;;;;;;;;;;;18.83;63.21;101514.22;5150392;27;632;-67
2021/05/03 03:25:33;;;;;;;;;;;;;;;18.82;63.29;101506.34;5135864;27;1346;-67
2021/05/03 03:28:18;;;;;;;;;;;;;;;18.80;63.25;101509.06;5151492;27;1897;-67
2021/05/03 03:31:03;;;;;;;;;;;;;;;18.79;63.20;101502.06;5135416;27;1283;-67
2021/05/03 03:33:47;;;;;;;;;;;;;;;18.81;63.10;101500.22;5151120;27;1056;-66
2021/05/03 03:36:32;;;;;;;;;;;;;;;18.79;63.13;101502.06;5135294;27;1369;-67
2021/05/03 03:39:16;;;;;;;;;;;;;;;18.80;63.16;101495.88;5150204;27;1043;-66
2021/05/03 03:42:01;;;;;;;;;;;;;;;18.79;63.02;101491.50;5151524;27;675;-67
2021/05/03 03:44:46;;;;;;;;;;;;;;;18.81;63.17;101494.09;5151332;27;1227;-67
2021/05/03 03:47:31;;;;;;;;;;;;;;;18.81;62.99;101502.00;5150844;27;1371;-65
2021/05/03 03:50:16;;;;;;;;;;;;;;;18.79;63.19;101499.41;5135259;27;1972;-67
2021/05/03 03:53:01;;;;;;;;;;;;;;;18.77;63.06;101498.66;5135198;27;675;-67
2021/05/03 03:55:45;;;;;;;;;;;;;;;18.77;63.09;101503.94;5151184;27;1338;-67
2021/05/03 03:58:30;;;;;;;;;;;;;;;18.78;63.22;101505.66;5150996;27;659;-67
2021/05/03 04:01:15;;;;;;;;;;;;;;;18.78;62.88;101505.66;5150639;27;1385;-66
2021/05/03 04:04:03;;;;;;;;;;;;;;;18.76;63.10;101512.75;5150958;27;1021;-67
2021/05/03 04:21:52;;;;;;;;;;;;;;;18.74;62.84;101504.06;5133762;27;1228;-67
2021/05/03 04:27:29;;;;;;;;;;;;;;;18.74;62.72;101506.69;5150176;27;819;-66
2021/05/03 04:30:14;;;;;;;;;;;;;;;18.75;62.57;101504.94;5150076;27;1909;-66
2021/05/03 04:32:59;;;;;;;;;;;;;;;18.75;62.75;101508.44;5149516;27;639;-67
2021/05/03 04:35:44;;;;;;;;;;;;;;;18.74;62.64;101509.34;5154423;27;1322;-66
2021/05/03 04:38:29;;;;;;;;;;;;;;;18.74;62.76;101514.63;5134045;27;663;-67
2021/05/03 04:41:13;;;;;;;;;;;;;;;18.73;62.62;101512.03;5118408;27;1331;-66
2021/05/03 04:43:58;;;;;;;;;;;;;;;18.72;62.59;101508.56;5133849;27;1039;-67
2021/05/03 04:46:43;;;;;;;;;;;;;;;18.71;62.53;101508.63;5133751;27;1412;-67
2021/05/03 04:49:28;;;;;;;;;;;;;;;18.74;62.47;101509.34;5133701;27;1969;-66
2021/05/03 04:52:12;;;;;;;;;;;;;;;18.71;62.49;101509.47;5133590;27;624;-66
2021/05/03 04:54:57;;;;;;;;;;;;;;;18.71;62.51;101508.63;5133690;27;1232;-67
2021/05/03 04:57:42;;;;;;;;;;;;;;;18.71;62.39;101514.75;5133634;27;652;-66
2021/05/03 05:00:26;;;;;;;;;;;;;;;18.71;62.42;101520.03;5133679;27;1325;-67
2021/05/03 05:03:11;;;;;;;;;;;;;;;18.68;62.44;101514.91;5133042;27;743;-66
2021/05/03 05:05:56;;;;;;;;;;;;;;;18.71;62.50;101514.75;5133552;27;1243;-67
2021/05/03 05:08:41;;;;;;;;;;;;;;;18.68;62.29;101517.53;5133459;27;1902;-67
2021/05/03 05:11:25;;;;;;;;;;;;;;;18.70;62.48;101522.72;5133038;27;1427;-67
2021/05/03 05:14:10;;;;;;;;;;;;;;;18.67;62.28;101526.38;5133115;27;1134;-67
2021/05/03 05:16:54;;;;;;;;;;;;;;;18.69;62.36;101535.09;5133425;27;694;-68
2021/05/03 05:19:39;;;;;;;;;;;;;;;18.69;62.42;101543.00;5120068;27;1533;-66
2021/05/03 05:22:24;;;;;;;;;;;;;;;18.70;62.63;101538.56;5139770;27;1438;-66
2021/05/03 05:25:10;;;;;;;;;;;;;;;18.68;62.50;101541.28;5132640;27;1251;-66
2021/05/03 05:27:55;;;;;;;;;;;;;;;18.67;62.71;101544.84;5131957;27;726;-64
2021/05/03 05:30:39;;;;;;;;;;;;;;;18.66;62.57;101543.16;5132119;27;1898;-63
2021/05/03 05:33:24;;;;;;;;;;;;;;;18.65;62.66;101541.41;5131732;27;673;-65
2021/05/03 05:36:09;;;;;;;;;;;;;;;18.64;62.56;101539.69;5131734;27;1275;-63
2021/05/03 05:38:54;;;;;;;;;;;;;;;18.64;62.60;101539.69;5131721;27;1058;-65
2021/05/03 05:41:39;;;;;;;;;;;;;;;18.62;62.58;101546.84;5131515;27;1400;-64
2021/05/03 05:44:24;;;;;;;;;;;;;;;18.68;62.54;101546.56;5131652;27;1135;-64
2021/05/03 05:47:09;;;;;;;;;;;;;;;18.75;62.70;101542.75;5129988;27;1107;-65
2021/05/03 05:49:54;;;;;;;;;;;;;;;18.70;62.57;101539.44;5139889;27;1983;-64
2021/05/03 05:52:39;;;;;;;;;;;;;;;18.68;62.82;101548.34;5137154;27;690;-64
2021/05/03 05:55:24;;;;;;;;;;;;;;;18.73;63.10;101548.97;5152208;27;1370;-65
2021/05/03 05:58:09;;;;;;;;;;;;;;;18.71;63.07;101553.47;5131431;27;657;-65
2021/05/03 06:00:53;;;;;;;;;;;;;;;18.82;63.91;101556.50;5131575;27;1279;-67
2021/05/03 06:03:38;;;;;;;;;;;;;;;18.85;63.14;101549.31;5132095;27;737;-68
2021/05/03 06:06:23;;;;;;;;;;;;;;;18.73;63.09;101560.41;5143841;27;1302;-69
2021/05/03 06:09:08;;;;;;;;;;;;;;;18.72;63.04;101556.06;5152815;27;1952;-69
2021/05/03 06:11:52;;;;;;;;;;;;;;;18.70;62.71;101552.63;5136832;27;761;-71
2021/05/03 06:14:37;;;;;;;;;;;;;;;18.67;62.73;101563.31;5152039;27;1357;-67
2021/05/03 06:17:22;;;;;;;;;;;;;;;18.66;62.56;101566.03;5152871;27;658;-69
2021/05/03 06:20:07;;;;;;;;;;;;;;;18.65;62.64;101570.44;5136794;27;1300;-70
2021/05/03 06:22:59;;;;;;;;;;;;;;;18.66;62.55;101581.88;5152425;27;722;-69
2021/05/03 06:25:44;;;;;;;;;;;;;;;18.65;62.55;101582.78;5136623;27;1247;-69
2021/05/03 06:28:29;;;;;;;;;;;;;;;18.66;62.68;101590.66;5136530;27;1943;-70
2021/05/03 06:31:14;;;;;;;;;;;;;;;18.65;62.59;101598.63;5152198;27;1343;-70
2021/05/03 06:33:59;;;;;;;;;;;;;;;18.62;62.54;101589.06;5152726;27;938;-70
2021/05/03 06:36:44;;;;;;;;;;;;;;;18.61;62.67;101589.97;5152260;27;1314;-69
2021/05/03 06:39:28;;;;;;;;;;;;;;;18.61;62.47;101597.03;5136618;27;1278;-70
2021/05/03 06:42:13;;;;;;;;;;;;;;;18.60;62.62;101604.09;5152006;27;643;-69
2021/05/03 06:44:59;;;;;;;;;;;;;;;18.58;62.62;101613.84;5152142;27;1235;-69
2021/05/03 06:47:45;;;;;;;;;;;;;;;18.61;62.80;101613.72;5150073;27;1685;-67
2021/05/03 06:50:31;;;;;;;;;;;;;;;18.60;62.57;101601.47;5142511;27;1924;-68
2021/05/03 06:53:16;;;;;;;;;;;;;;;18.59;62.37;101607.66;5152224;27;611;-68
2021/05/03 06:56:01;;;;;;;;;;;;;;;18.64;62.74;101603.03;5136083;27;1272;-72
2021/05/03 06:58:46;;;;;;;;;;;;;;;18.64;62.32;101603.03;5135563;27;1053;-66
2021/05/03 07:01:30;;;;;;;;;;;;;;;18.73;62.46;101607.91;5144630;27;1576;-70
2021/05/03 07:04:18;;;;;;;;;;;;;;;18.71;62.39;101609.78;5134070;27;1064;-70
2021/05/03 07:07:03;;;;;;;;;;;;;;;18.64;62.32;101603.03;5131066;27;667;-72
2021/05/03 07:09:48;;;;;;;;;;;;;;;18.64;62.45;101610.94;5130811;27;1956;-71
2021/05/03 07:12:43;;;;;;;;;;;;;;;18.65;62.60;101604.75;5133796;27;1600;-64
2021/05/03 07:15:28;;;;;;;;;;;;;;;18.63;62.68;101596.06;5120803;27;1315;-66
2021/05/03 07:18:13;;;;;;;;;;;;;;;18.65;62.51;101598.63;5131737;27;1596;-66
2021/05/03 07:20:58;;;;;;;;;;;;;;;18.67;62.70;101592.34;5138814;27;1283;-67
2021/05/03 07:23:42;;;;;;;;;;;;;;;18.64;62.50;101589.84;5143651;27;1093;-66
2021/05/03 07:26:28;;;;;;;;;;;;;;;18.67;63.05;101600.25;5147740;27;1298;-68
2021/05/03 07:29:12;;;;;;;;;;;;;;;18.65;62.54;101591.56;5129081;27;1972;-71
2021/05/03 07:31:58;;;;;;;;;;;;;;;18.66;62.49;101597.69;5128455;27;1058;-71
2021/05/03 07:34:43;;;;;;;;;;;;;;;18.67;62.41;101599.41;5113392;27;1271;-70
2021/05/03 07:37:27;;;;;;;;;;;;;;;18.73;63.17;101600.00;5113312;27;1066;-67
2021/05/03 07:40:12;;;;;;;;;;;;;;;18.73;62.43;101601.78;5128998;27;1261;-69
2021/05/03 07:42:57;;;;;;;;;;;;;;;18.70;62.40;101592.22;5129374;27;948;-69
2021/05/03 07:45:43;;;;;;;;;;;;;;;18.71;62.76;101587.78;5129191;27;1270;-70
2021/05/03 07:48:28;;;;;;;;;;;;;;;18.70;62.63;101592.22;5128820;27;691;-69
2021/05/03 07:51:13;;;;;;;;;;;;;;;18.71;62.78;101588.66;5128838;27;1374;-68
2021/05/03 07:53:59;;;;;;;;;;;;;;;18.77;64.80;101588.38;5146248;27;1191;-67
2021/05/03 07:56:44;;;;;;;;;;;;;;;18.94;66.75;101587.63;5149236;27;1355;-69
2021/05/03 07:59:29;;;;;;;;;;;;;;;18.91;66.91;101585.97;5129463;27;1576;-69
2021/05/03 08:02:15;;;;;;;;;;;;;;;18.85;64.74;101577.47;5138788;27;1147;-69
2021/05/03 08:05:01;;;;;;;;;;;;;;;18.82;64.92;101583.75;5140231;27;1223;-69
2021/05/03 08:07:46;;;;;;;;;;;;;;;18.81;65.61;101583.84;5113492;27;1080;-67
2021/05/03 08:10:31;;;;;;;;;;;;;;;18.81;64.78;101584.69;5129656;27;2000;-67
2021/05/03 08:13:16;;;;;;;;;;;;;;;18.86;65.15;101581.84;5129615;27;1336;-69
2021/05/03 08:16:03;;;;;;;;;;;;;;;18.89;64.68;101586.97;5141576;27;1306;-68
2021/05/03 08:18:49;;;;;;;;;;;;;;;18.98;64.48;101581.28;5143800;27;1560;-69
2021/05/03 08:21:34;;;;;;;;;;;;;;;18.96;64.82;101583.16;5146219;27;1290;-68
2021/05/03 08:24:19;;;;;;;;;;;;;;;18.91;64.92;101588.63;5146468;27;572;-68
2021/05/03 08:27:05;;;;;;;;;;;;;;;18.86;64.22;101587.13;5114376;28;1450;-66
2021/05/03 08:29:49;;;;;;;;;;;;;;;18.88;63.98;101591.41;5126304;28;1965;-68
2021/05/03 08:32:35;;;;;;;;;;;;;;;18.86;63.73;101585.34;5111175;28;1072;-69
2021/05/03 08:35:20;;;;;;;;;;;;;;;18.89;63.33;101584.34;5126153;28;1220;-68
2021/05/03 08:38:05;;;;;;;;;;;;;;;18.86;63.31;101582.69;5127467;28;659;-71
2021/05/03 08:40:52;;;;;;;;;;;;;;;18.86;63.12;101582.69;5128142;28;1361;-69
2021/05/03 08:43:40;;;;;;;;;;;;;;;18.85;63.08;101580.97;5127888;28;711;-70
2021/05/03 08:46:28;;;;;;;;;;;;;;;18.86;62.95;101585.34;5127841;28;1413;-67
2021/05/03 08:49:30;;;;;;;;;;;;;;;18.85;62.81;101580.97;5119211;27;1902;-68
2021/05/03 08:52:17;;;;;;;;;;;;;;;18.88;62.66;101583.47;5112266;28;1124;-67
2021/05/03 08:55:04;;;;;;;;;;;;;;;18.91;62.70;101577.19;5112602;28;1287;-68
2021/05/03 08:57:49;;;;;;;;;;;;;;;18.87;63.64;101584.44;5128692;28;1060;-69
2021/05/03 09:00:34;;;;;;;;;;;;;;;18.90;62.62;101586.94;5127912;28;1279;-69
2021/05/03 09:03:19;;;;;;;;;;;;;;;18.81;62.59;101582.06;5127176;28;683;-69
2021/05/03 09:06:04;;;;;;;;;;;;;;;18.80;62.58;101588.25;5127504;28;1386;-70
2021/05/03 09:09:04;;;;;;;;;;;;;;;18.89;62.90;101582.56;5127203;28;1959;-69
2021/05/03 09:12:02;;;;;;;;;;;;;;;18.86;62.59;101593.25;5127583;28;1278;-69
2021/05/03 09:14:56;;;;;;;;;;;;;;;18.86;63.69;101582.69;5127553;28;1308;-69
2021/05/03 09:17:51;;;;;;;;;;;;;;;18.94;66.09;101580.56;5130347;27;1482;-68
2021/05/03 09:20:36;;;;;;;;;;;;;;;18.90;65.32;101588.72;5138035;27;1299;-70
2021/05/03 09:23:25;;;;;;;;;;;;;;;18.92;66.21;101579.78;5131615;27;612;-68
2021/05/03 09:26:10;;;;;;;;;;;;;;;18.91;65.63;101579.84;5117392;27;1373;-68
2021/05/03 09:28:55;;;;;;;;;;;;;;;18.89;65.48;101582.56;5152165;27;1906;-69
2021/05/03 09:31:55;;;;;;;;;;;;;;;18.87;65.83;101589.72;5152393;27;1307;-70
2021/05/03 09:34:42;;;;;;;;;;;;;;;18.86;65.89;101587.13;5136423;27;1215;-68
2021/05/03 09:37:35;;;;;;;;;;;;;;;18.88;65.91;101580.84;5139473;27;1544;-68
2021/05/03 09:40:20;;;;;;;;;;;;;;;18.87;65.83;101579.16;5148274;27;1812;-69
2021/05/03 09:43:05;;;;;;;;;;;;;;;18.87;65.72;101573.88;5130800;27;1196;-68
2021/05/03 09:45:49;;;;;;;;;;;;;;;18.93;66.82;101567.44;5130918;27;1294;-67
2021/05/03 09:48:34;;;;;;;;;;;;;;;18.94;66.07;101571.78;5139294;27;1180;-68
2021/05/03 09:51:36;;;;;;;;;;;;;;;18.88;65.60;101580.84;5136060;27;1296;-69
2021/05/03 09:54:29;;;;;;;;;;;;;;;18.85;65.63;101575.69;5151913;27;682;-68
2021/05/03 09:57:14;;;;;;;;;;;;;;;18.83;65.69;101576.69;5126159;27;1221;-67
2021/05/03 10:00:01;;;;;;;;;;;;;;;18.82;65.50;101580.25;5130977;27;1366;-67
2021/05/03 10:02:46;;;;;;;;;;;;;;;18.81;65.44;101579.41;5130495;27;1097;-69
2021/05/03 10:05:46;;;;;;;;;;;;;;;18.80;65.31;101582.97;5130605;27;1316;-68
2021/05/03 10:08:31;;;;;;;;;;;;;;;18.81;65.17;101575.91;5130417;27;659;-68
2021/05/03 10:11:17;;;;;;;;;;;;;;;18.83;65.58;101577.56;5130166;27;1557;-65
2021/05/03 10:14:01;;;;;;;;;;;;;;;18.78;55.21;101579.56;5136430;27;974;-66
2021/05/03 10:16:47;;;;;;;;;;;;;;;18.80;53.10;101569.78;5130462;27;1361;-67
2021/05/03 10:19:50;;;;;;;;;;;;;;;18.88;49.43;101579.97;5130852;27;1349;-68
2021/05/03 10:22:35;;;;;;;;;;;;;;;18.79;47.36;101573.31;5130792;27;1171;-68
2021/05/03 10:25:21;;;;;;;;;;;;;;;18.77;47.45;101577.84;5149810;27;1348;-68
2021/05/03 10:28:05;;;;;;;;;;;;;;;18.72;48.16;101571.91;5151376;27;654;-68
2021/05/03 10:30:51;;;;;;;;;;;;;;;18.74;45.65;101577.97;5146050;27;1905;-68
2021/05/03 10:33:37;;;;;;;;;;;;;;;18.72;45.92;101574.53;5133665;27;871;-69
2021/05/03 10:36:35;;;;;;;;;;;;;;;18.65;46.13;101585.41;5141784;27;1352;-69
2021/05/03 10:39:27;;;;;;;;;;;;;;;18.72;45.83;101590.38;5113541;27;715;-69
2021/05/03 10:42:12;;;;;;;;;;;;;;;18.71;45.32;101582.50;5129609;27;1096;-68
2021/05/03 10:45:05;;;;;;;;;;;;;;;18.68;44.81;101583.50;5129511;27;1376;-68
2021/05/03 10:47:56;;;;;;;;;;;;;;;18.69;44.92;101595.78;5133449;27;1155;-69
2021/05/03 10:50:44;;;;;;;;;;;;;;;18.69;44.70;101598.44;5146363;27;1909;-67
2021/05/03 10:53:34;;;;;;;;;;;;;;;18.69;44.22;101598.44;5127810;27;654;-67
2021/05/03 11:04:00;;;;;;;;;;;;;;;18.76;46.10;101610.41;5130683;27;707;-67
2021/05/03 11:06:45;;;;;;;;;;;;;;;18.78;45.96;101600.66;5127334;27;1291;-66
2021/05/03 11:09:31;;;;;;;;;;;;;;;18.77;46.27;101609.50;5130286;27;1968;-67
2021/05/03 11:12:16;;;;;;;;;;;;;;;18.76;46.42;101602.50;5130827;27;946;-67
2021/05/03 11:15:25;;;;;;;;;;;;;;;18.75;46.38;101595.53;5130215;27;1295;-68
2021/05/03 11:18:19;;;;;;;;;;;;;;;18.81;47.88;101597.91;5130498;27;651;-64
2021/05/03 11:21:14;;;;;;;;;;;;;;;18.76;44.81;101597.22;5130263;27;1370;-66
2021/05/03 11:24:13;;;;;;;;;;;;;;;18.73;45.24;101596.50;5129876;27;663;-68
2021/05/03 11:27:06;;;;;;;;;;;;;;;18.77;45.27;101592.81;5130227;27;1155;-67
2021/05/03 11:30:06;;;;;;;;;;;;;;;18.76;45.17;101597.22;5130424;27;1886;-67
2021/05/03 11:32:53;;;;;;;;;;;;;;;18.79;46.84;101586.53;5151297;27;1139;-65
2021/05/03 11:35:56;;;;;;;;;;;;;;;18.90;46.88;101584.28;5142823;27;1248;-67
2021/05/03 11:45:15;;;;;;;;;;;;;;;18.84;49.71;101588.97;5064991;28;1370;-68
2021/05/03 11:48:00;;;;;;;;;;;;;;;18.77;50.91;101577.84;5130108;27;1598;-66
2021/05/03 11:50:45;;;;;;;;;;;;;;;18.77;51.63;101576.97;5129450;27;1942;-66
2021/05/03 11:53:37;;;;;;;;;;;;;;;18.74;51.54;101569.19;5114695;27;687;-67
2021/05/03 11:56:27;;;;;;;;;;;;;;;18.75;52.43;101555.94;5117317;27;1745;-67
2021/05/03 11:59:16;;;;;;;;;;;;;;;18.74;52.47;101558.63;5132169;27;1737;-67
2021/05/03 12:02:17;;;;;;;;;;;;;;;18.82;52.70;101546.78;5129204;27;991;-66
2021/05/03 12:05:11;;;;;;;;;;;;;;;18.81;52.96;101554.81;5128459;27;1691;-67
2021/05/03 12:07:56;;;;;;;;;;;;;;;18.79;53.51;101548.72;5129939;27;1501;-66
2021/05/03 12:10:41;;;;;;;;;;;;;;;18.86;53.90;101553.66;5124719;27;1977;-68
2021/05/03 12:13:25;;;;;;;;;;;;;;;18.90;54.17;101551.75;5149319;27;663;-68
2021/05/03 12:16:11;;;;;;;;;;;;;;;18.93;55.10;101546.34;5148738;27;1319;-66
2021/05/03 12:18:56;;;;;;;;;;;;;;;19.24;54.59;101556.34;5148889;27;675;-65
2021/05/03 12:21:41;;;;;;;;;;;;;;;19.16;54.87;101554.06;5148228;27;1390;-66
2021/05/03 12:24:26;;;;;;;;;;;;;;;18.80;55.65;101509.06;5148081;27;1184;-65
2021/05/03 12:27:11;;;;;;;;;;;;;;;19.06;56.54;101558.03;5148079;27;898;-67
2021/05/03 12:29:57;;;;;;;;;;;;;;;19.08;56.85;101545.63;5132886;27;1961;-67
2021/05/03 12:32:42;;;;;;;;;;;;;;;19.10;57.09;101552.56;5149172;27;1134;-67
2021/05/03 12:35:27;;;;;;;;;;;;;;;19.30;57.00;101551.63;5147484;27;1850;-64
2021/05/03 12:38:15;;;;;;;;;;;;;;;19.26;57.11;101554.50;5115249;28;1559;-65
2021/05/03 12:41:01;;;;;;;;;;;;;;;19.21;57.61;101551.22;5142060;27;1691;-66
2021/05/03 12:43:57;;;;;;;;;;;;;;;19.10;57.78;101563.13;5147748;27;1690;-66
2021/05/03 12:46:43;;;;;;;;;;;;;;;19.07;58.16;101557.97;5121741;28;1639;-65
2021/05/03 12:49:29;;;;;;;;;;;;;;;19.07;58.24;101565.91;5107387;28;1910;-66
2021/05/03 12:52:24;;;;;;;;;;;;;;;19.14;58.27;101561.19;5111104;28;1458;-66
2021/05/03 12:55:21;;;;;;;;;;;;;;;19.10;58.40;101563.13;5125715;27;1239;-65
2021/05/03 12:58:15;;;;;;;;;;;;;;;19.09;58.48;101558.75;5132341;27;707;-64
2021/05/03 13:04:05;;;;;;;;;;;;;;;19.27;58.89;101554.41;5119633;27;910;-65
2021/05/03 13:10:08;;;;;;;;;;;;;;;19.23;59.09;101563.41;5118957;27;1990;-66
2021/05/03 13:28:59;;;;;;;;;;;;;;;19.35;59.39;101532.91;5108879;27;1327;-67
2021/05/03 13:31:45;;;;;;;;;;;;;;;19.32;59.68;101538.34;5117306;27;1462;-69
2021/05/03 13:34:30;;;;;;;;;;;;;;;19.25;59.47;101542.19;5119417;27;1346;-68
2021/05/03 13:37:15;;;;;;;;;;;;;;;19.20;59.92;101528.34;5110672;28;1073;-64
2021/05/03 13:40:21;;;;;;;;;;;;;;;19.18;59.51;101524.94;5098332;28;1338;-64
2021/05/03 13:43:06;;;;;;;;;;;;;;;19.22;60.23;101521.22;5095560;28;671;-66
2021/05/03 13:45:51;;;;;;;;;;;;;;;19.20;59.44;101523.06;5110560;28;1375;-64
2021/05/03 13:48:36;;;;;;;;;;;;;;;19.20;60.24;101513.38;5094785;28;973;-64
2021/05/03 13:51:22;;;;;;;;;;;;;;;19.16;59.51;101524.13;5094762;28;1905;-64
2021/05/03 13:54:08;;;;;;;;;;;;;;;19.15;59.48;101525.09;5117665;27;881;-64
2021/05/03 13:57:05;;;;;;;;;;;;;;;19.14;59.51;101515.44;5131251;27;1062;-64
2021/05/03 13:59:50;;;;;;;;;;;;;;;19.13;59.47;101511.94;5130513;27;1405;-66
2021/05/03 14:02:35;;;;;;;;;;;;;;;19.14;59.48;101502.22;5122220;27;1504;-65
2021/05/03 14:05:21;;;;;;;;;;;;;;;19.14;59.69;101507.50;5109001;28;1303;-65
2021/05/03 14:08:06;;;;;;;;;;;;;;;19.13;59.82;101501.38;5111870;27;1537;-65
2021/05/03 14:10:51;;;;;;;;;;;;;;;19.13;60.29;101495.22;5122317;27;1902;-65
2021/05/03 14:13:37;;;;;;;;;;;;;;;19.13;60.31;101501.38;5130561;27;1031;-63
2021/05/03 14:16:21;;;;;;;;;;;;;;;19.13;60.11;101492.59;5114296;27;1350;-64
2021/05/03 14:19:11;;;;;;;;;;;;;;;19.14;60.17;101487.25;5125314;27;987;-64
2021/05/03 14:21:56;;;;;;;;;;;;;;;19.14;60.30;101486.38;5110034;28;1061;-65
2021/05/03 14:24:40;;;;;;;;;;;;;;;19.14;60.63;101483.75;5122092;27;1302;-63
2021/05/03 14:27:26;;;;;;;;;;;;;;;19.13;61.07;101484.66;5114923;27;1074;-64
2021/05/03 14:30:25;;;;;;;;;;;;;;;19.12;61.02;101481.16;5130136;27;1914;-64
2021/05/03 14:33:17;;;;;;;;;;;;;;;19.14;61.14;101483.75;5130592;27;706;-65
2021/05/03 14:36:07;;;;;;;;;;;;;;;19.12;61.33;101473.25;5114318;27;1310;-63
2021/05/03 14:38:51;;;;;;;;;;;;;;;19.13;62.03;101469.69;5130116;27;1046;-64
2021/05/03 14:41:36;;;;;;;;;;;;;;;19.17;62.45;101470.41;5130227;27;1287;-64
2021/05/03 14:44:21;;;;;;;;;;;;;;;19.15;61.83;101467.81;5121352;27;1335;-63
2021/05/03 14:47:17;;;;;;;;;;;;;;;19.13;62.00;101468.81;5116556;27;1359;-64
2021/05/03 14:50:11;;;;;;;;;;;;;;;19.14;62.54;101466.13;5126874;27;1988;-65
2021/05/03 14:53:20;;;;;;;;;;;;;;;19.14;62.91;101459.97;5137383;27;1080;-65
2021/05/03 14:56:05;;;;;;;;;;;;;;;19.15;62.81;101464.34;5144932;27;1404;-66
2021/05/03 14:58:50;;;;;;;;;;;;;;;19.15;63.46;101451.97;5131563;27;1163;-66
2021/05/03 15:01:35;;;;;;;;;;;;;;;19.20;63.54;101443.84;5142347;27;1298;-64
2021/05/03 15:04:20;;;;;;;;;;;;;;;19.21;63.15;101435.81;5128768;27;933;-66
2021/05/03 15:07:10;;;;;;;;;;;;;;;19.25;62.58;101433.91;5129828;27;1698;-64
2021/05/03 15:09:56;;;;;;;;;;;;;;;19.21;63.28;101435.81;5134217;27;1975;-66
2021/05/03 15:16:03;;;;;;;;;;;;;;;19.18;62.40;101435.97;5104043;27;1295;-64
2021/05/03 15:21:37;;;;;;;;;;;;;;;19.20;61.97;101446.47;5143906;27;1255;-63
2021/05/03 15:24:22;;;;;;;;;;;;;;;19.20;62.16;101442.06;5123793;27;968;-64
2021/05/03 15:27:16;;;;;;;;;;;;;;;19.20;61.90;101438.56;5139414;27;1128;-64
2021/05/03 15:35:52;;;;;;;;;;;;;;;19.23;62.36;101433.13;5146799;27;1286;-63
2021/05/03 15:38:37;;;;;;;;;;;;;;;19.31;61.99;101426.53;5133298;27;1017;-62